Time;durP1;ratioP1;P1;durP2;ratioP2;P2;SDS_P1;SDS_P2;PMS_P1;PMS_P2;Temp;Humidity;BMP_temperature;BMP_pressure;BME280_temperature;BME280_humidity;BME280_pressure;Samples;Min_cycle;Max_cycle;Signal;HPM_P1;HPM_P2
2023/04/12 00:01:01;;;;;;;;;;;;;;;8.09;75.08;95240.69;5054558;28;20458;-66
2023/04/12 00:03:32;;;;;;;;;;;;;;;8.08;76.21;95238.16;5054781;28;19924;-66
2023/04/12 00:06:02;;;;;;;;;;;;;;;8.05;75.31;95241.78;5054469;28;19934;-66
2023/04/12 00:08:32;;;;;;;;;;;;;;;8.00;74.12;95233.31;5054651;28;19925;-66
2023/04/12 00:10:59;;;;;;;;;;;;;;;8.04;75.78;95234.03;5054395;28;20276;-66
2023/04/12 00:13:27;;;;;;;;;;;;;;;8.03;76.62;95225.38;5054199;28;19966;-66
2023/04/12 00:15:54;;;;;;;;;;;;;;;8.02;75.81;95220.22;5054340;28;19964;-66
2023/04/12 00:18:23;;;;;;;;;;;;;;;8.10;74.58;95233.75;5054348;28;19921;-66
2023/04/12 00:20:51;;;;;;;;;;;;;;;8.11;75.12;95234.56;5054287;28;19980;-66
2023/04/12 00:23:20;;;;;;;;;;;;;;;8.09;74.26;95226.81;5054168;28;19920;-66
2023/04/12 00:25:47;;;;;;;;;;;;;;;8.13;75.26;95223.13;5054143;28;20259;-66
2023/04/12 00:28:14;;;;;;;;;;;;;;;8.03;75.27;95221.91;5054194;28;19921;-66
2023/04/12 00:30:42;;;;;;;;;;;;;;;8.04;75.71;95221.84;5054092;28;19928;-66
2023/04/12 00:33:09;;;;;;;;;;;;;;;8.04;75.86;95227.03;5054012;28;20029;-66
2023/04/12 00:35:36;;;;;;;;;;;;;;;8.01;76.45;95215.94;5054058;28;19920;-66
2023/04/12 00:38:09;;;;;;;;;;;;;;;8.00;76.59;95209.88;5054050;28;19921;-66
2023/04/12 00:40:41;;;;;;;;;;;;;;;7.91;75.61;95205.13;5053890;28;20016;-66
2023/04/12 00:43:17;;;;;;;;;;;;;;;7.97;75.32;95204.81;5053863;28;19925;-66
2023/04/12 00:45:44;;;;;;;;;;;;;;;8.00;75.74;95204.69;5053890;28;19921;-66
2023/04/12 00:48:11;;;;;;;;;;;;;;;7.96;75.62;95192.72;5053908;28;19921;-66
2023/04/12 00:50:43;;;;;;;;;;;;;;;7.98;75.89;95196.13;5053703;28;20012;-66
2023/04/12 00:53:12;;;;;;;;;;;;;;;8.00;74.55;95194.25;5053707;28;19920;-66
2023/04/12 00:55:41;;;;;;;;;;;;;;;8.02;74.12;95186.38;5053847;28;19989;-66
2023/04/12 00:58:08;;;;;;;;;;;;;;;8.03;74.86;95185.44;5053119;28;19927;-66
2023/04/12 01:00:35;;;;;;;;;;;;;;;8.05;74.70;95188.84;5053539;28;19927;-66
2023/04/12 01:03:04;;;;;;;;;;;;;;;8.11;73.71;95187.69;5053655;28;20335;-66
2023/04/12 01:05:35;;;;;;;;;;;;;;;8.08;72.58;95181.72;5053652;28;20011;-66
2023/04/12 01:08:06;;;;;;;;;;;;;;;8.11;72.54;95182.47;5053592;28;20050;-66
2023/04/12 01:10:38;;;;;;;;;;;;;;;8.19;72.08;95180.34;5053580;28;19928;-66
2023/04/12 01:13:12;;;;;;;;;;;;;;;8.22;71.07;95177.59;5053333;28;19924;-66
2023/04/12 01:15:41;;;;;;;;;;;;;;;8.27;71.47;95186.00;5053442;28;19925;-66
2023/04/12 01:18:09;;;;;;;;;;;;;;;8.27;71.08;95179.94;5053531;28;19924;-66
2023/04/12 01:20:43;;;;;;;;;;;;;;;8.34;70.99;95184.75;5053289;28;19978;-66
2023/04/12 01:23:16;;;;;;;;;;;;;;;8.35;72.36;95185.63;5053403;28;19978;-66
2023/04/12 01:25:59;;;;;;;;;;;;;;;8.33;70.92;95180.47;5053262;28;19927;-66
2023/04/12 01:28:32;;;;;;;;;;;;;;;8.26;73.58;95180.88;5051785;28;19927;-66
2023/04/12 01:31:01;;;;;;;;;;;;;;;8.20;71.33;95172.44;5053363;28;19924;-66
2023/04/12 01:33:30;;;;;;;;;;;;;;;8.28;71.69;95173.81;5053202;28;19921;-66
2023/04/12 01:35:59;;;;;;;;;;;;;;;8.27;73.29;95177.31;5053221;28;19975;-66
2023/04/12 01:38:27;;;;;;;;;;;;;;;8.11;72.12;95167.69;5053262;28;19921;-66
2023/04/12 01:40:54;;;;;;;;;;;;;;;8.17;73.03;95166.53;5053018;28;19929;-66
2023/04/12 01:43:21;;;;;;;;;;;;;;;8.15;73.78;95158.81;5053316;28;20015;-66
2023/04/12 01:45:49;;;;;;;;;;;;;;;8.18;73.47;95165.59;5053180;28;19936;-66
2023/04/12 01:48:18;;;;;;;;;;;;;;;8.22;73.33;95174.97;5053484;28;19924;-66
2023/04/12 01:50:50;;;;;;;;;;;;;;;8.17;74.13;95164.78;5053136;28;19928;-66
2023/04/12 01:53:19;;;;;;;;;;;;;;;8.12;72.04;95168.56;5053205;28;19921;-66
2023/04/12 01:55:50;;;;;;;;;;;;;;;8.13;71.97;95163.22;5053105;28;19990;-66
2023/04/12 01:58:20;;;;;;;;;;;;;;;8.16;72.41;95162.25;5053022;28;19928;-66
2023/04/12 02:00:48;;;;;;;;;;;;;;;8.16;73.81;95157.06;5052957;28;19921;-66
2023/04/12 02:03:24;;;;;;;;;;;;;;;8.01;73.08;95150.84;5052961;28;19928;-66
2023/04/12 02:05:52;;;;;;;;;;;;;;;8.03;73.65;95155.06;5053093;28;20341;-66
2023/04/12 02:08:19;;;;;;;;;;;;;;;8.03;73.26;95154.19;5054267;28;19940;-66
2023/04/12 02:10:47;;;;;;;;;;;;;;;7.91;73.14;95159.09;5056765;28;19975;-66
2023/04/12 02:13:14;;;;;;;;;;;;;;;7.87;72.63;95165.38;5056526;28;20015;-66
2023/04/12 02:15:40;;;;;;;;;;;;;;;7.89;72.80;95162.72;5056636;28;19931;-66
2023/04/12 02:18:07;;;;;;;;;;;;;;;7.92;73.27;95163.38;5056609;28;19920;-66
2023/04/12 02:20:35;;;;;;;;;;;;;;;7.95;73.39;95165.03;5056548;28;19924;-66
2023/04/12 02:23:02;;;;;;;;;;;;;;;7.92;72.10;95159.97;5056497;28;19921;-66
2023/04/12 02:25:30;;;;;;;;;;;;;;;7.93;72.75;95164.25;5056584;28;19927;-66
2023/04/12 02:27:56;;;;;;;;;;;;;;;7.93;73.16;95166.84;5056606;28;19971;-66
2023/04/12 02:30:23;;;;;;;;;;;;;;;7.91;73.58;95172.13;5056570;28;19920;-66
2023/04/12 02:32:51;;;;;;;;;;;;;;;7.91;74.50;95164.31;5056320;28;19976;-66
2023/04/12 02:35:18;;;;;;;;;;;;;;;7.75;74.35;95165.97;5056404;28;19920;-66
2023/04/12 02:37:47;;;;;;;;;;;;;;;7.75;75.34;95156.44;5056281;28;20015;-66
2023/04/12 02:40:15;;;;;;;;;;;;;;;7.78;73.69;95160.63;5056250;28;20007;-66
2023/04/12 02:42:42;;;;;;;;;;;;;;;7.83;74.42;95161.25;5056230;28;19967;-66
2023/04/12 02:45:10;;;;;;;;;;;;;;;7.81;73.17;95161.34;5056136;28;19931;-66
2023/04/12 02:47:37;;;;;;;;;;;;;;;7.92;73.06;95162.56;5056088;28;19921;-66
2023/04/12 02:50:04;;;;;;;;;;;;;;;7.95;72.32;95158.03;5056116;28;19921;-66
2023/04/12 02:52:33;;;;;;;;;;;;;;;7.99;73.03;95152.66;5056001;28;20295;-66
2023/04/12 02:55:02;;;;;;;;;;;;;;;7.90;73.16;95151.38;5056034;28;20437;-66
2023/04/12 02:57:28;;;;;;;;;;;;;;;7.94;72.92;95152.91;5056099;28;19975;-66
2023/04/12 02:59:55;;;;;;;;;;;;;;;7.95;71.09;95146.78;5055968;28;19921;-66
2023/04/12 03:02:23;;;;;;;;;;;;;;;8.00;71.32;95142.19;5055751;28;20006;-66
2023/04/12 03:04:50;;;;;;;;;;;;;;;8.10;71.60;95137.38;5055715;28;19928;-66
2023/04/12 03:07:18;;;;;;;;;;;;;;;8.11;70.13;95143.41;5055826;28;19924;-66
2023/04/12 03:09:45;;;;;;;;;;;;;;;8.14;69.59;95146.72;5055663;28;19924;-66
2023/04/12 03:12:15;;;;;;;;;;;;;;;8.19;68.28;95141.28;5055581;28;19971;-67
2023/04/12 03:14:41;;;;;;;;;;;;;;;8.27;68.54;95143.47;5055527;28;19966;-67
2023/04/12 03:17:09;;;;;;;;;;;;;;;8.33;68.15;95144.00;5055534;28;20385;-66
2023/04/12 03:19:36;;;;;;;;;;;;;;;8.37;69.31;95142.06;5054848;28;19920;-67
2023/04/12 03:22:03;;;;;;;;;;;;;;;8.46;68.50;95151.19;5055408;28;19927;-66
2023/04/12 03:24:32;;;;;;;;;;;;;;;8.52;67.55;95147.44;5055414;28;19928;-66
2023/04/12 03:27:00;;;;;;;;;;;;;;;8.56;66.35;95157.66;5055398;28;19947;-67
2023/04/12 03:29:29;;;;;;;;;;;;;;;8.55;65.74;95148.13;5055370;28;19921;-66
2023/04/12 03:31:56;;;;;;;;;;;;;;;8.61;66.69;95159.97;5055337;28;19920;-66
2023/04/12 03:34:26;;;;;;;;;;;;;;;8.67;67.13;95151.03;5055323;28;19932;-66
2023/04/12 03:36:54;;;;;;;;;;;;;;;8.68;65.27;95148.34;5055181;28;19975;-66
2023/04/12 03:39:21;;;;;;;;;;;;;;;8.76;65.64;95147.09;5055122;28;19986;-66
2023/04/12 03:41:50;;;;;;;;;;;;;;;8.81;65.40;95158.09;5054886;28;19921;-66
2023/04/12 03:44:17;;;;;;;;;;;;;;;8.83;66.14;95140.63;5055041;28;19920;-66
2023/04/12 03:46:46;;;;;;;;;;;;;;;8.75;65.66;95150.59;5055022;28;19928;-66
2023/04/12 03:49:12;;;;;;;;;;;;;;;8.82;65.62;95149.38;5054829;28;19947;-66
2023/04/12 03:51:41;;;;;;;;;;;;;;;8.83;64.34;95156.25;5054884;28;19921;-66
2023/04/12 03:54:08;;;;;;;;;;;;;;;8.83;64.58;95145.84;5054706;28;19927;-66
2023/04/12 03:56:37;;;;;;;;;;;;;;;8.87;64.87;95151.72;5054673;28;19991;-66
2023/04/12 03:59:04;;;;;;;;;;;;;;;8.88;66.04;95150.81;5055096;28;20290;-66
2023/04/12 04:01:32;;;;;;;;;;;;;;;8.90;64.15;95159.38;5054612;28;19921;-66
2023/04/12 04:04:01;;;;;;;;;;;;;;;8.97;66.78;95155.50;5054580;28;20457;-66
2023/04/12 04:06:30;;;;;;;;;;;;;;;8.94;66.12;95163.53;5054539;28;19924;-66
2023/04/12 04:08:57;;;;;;;;;;;;;;;8.96;65.88;95159.91;5054511;28;20003;-66
2023/04/12 04:11:24;;;;;;;;;;;;;;;8.98;65.08;95165.03;5054456;28;19927;-66
2023/04/12 04:13:51;;;;;;;;;;;;;;;9.02;63.97;95168.31;5054189;28;19924;-66
2023/04/12 04:16:18;;;;;;;;;;;;;;;9.03;63.80;95164.78;5054589;28;19966;-66
2023/04/12 04:18:45;;;;;;;;;;;;;;;9.01;63.89;95162.28;5054272;28;19974;-66
2023/04/12 04:21:14;;;;;;;;;;;;;;;9.06;63.36;95170.66;5054309;28;19967;-66
2023/04/12 04:23:43;;;;;;;;;;;;;;;9.10;63.88;95159.13;5054270;28;20263;-66
2023/04/12 04:26:11;;;;;;;;;;;;;;;9.08;64.58;95165.38;5054158;28;19921;-66
2023/04/12 04:28:38;;;;;;;;;;;;;;;9.02;64.08;95163.94;5054384;28;19920;-66
2023/04/12 04:31:06;;;;;;;;;;;;;;;9.07;63.32;95166.31;5053749;28;19921;-66
2023/04/12 04:33:33;;;;;;;;;;;;;;;9.14;65.12;95162.44;5053579;28;19921;-66
2023/04/12 04:36:00;;;;;;;;;;;;;;;9.16;62.86;95160.59;5054014;28;19925;-66
2023/04/12 04:38:31;;;;;;;;;;;;;;;9.12;62.38;95161.66;5052855;28;19974;-66
2023/04/12 04:41:01;;;;;;;;;;;;;;;9.16;62.95;95160.59;5053862;28;19964;-66
2023/04/12 04:43:29;;;;;;;;;;;;;;;9.21;61.48;95176.84;5053800;28;19920;-66
2023/04/12 04:45:56;;;;;;;;;;;;;;;9.32;60.88;95176.25;5053904;28;19921;-67
2023/04/12 04:48:25;;;;;;;;;;;;;;;9.41;60.84;95172.28;5053669;28;19928;-67
2023/04/12 04:50:53;;;;;;;;;;;;;;;9.46;61.03;95164.22;5053866;28;20080;-67
2023/04/12 04:53:25;;;;;;;;;;;;;;;9.47;59.60;95166.72;5053736;28;19921;-67
2023/04/12 04:56:02;;;;;;;;;;;;;;;9.52;59.65;95169.09;5053808;28;19924;-67
2023/04/12 04:58:29;;;;;;;;;;;;;;;9.54;60.34;95169.00;5053734;28;19966;-67
2023/04/12 05:00:56;;;;;;;;;;;;;;;9.56;61.02;95161.91;5053447;28;19927;-67
2023/04/12 05:03:27;;;;;;;;;;;;;;;9.53;58.93;95169.91;5053639;28;19928;-67
2023/04/12 05:05:54;;;;;;;;;;;;;;;9.55;60.13;95173.28;5053613;28;20444;-66
2023/04/12 05:08:21;;;;;;;;;;;;;;;9.55;58.23;95179.38;5053425;28;19921;-66
2023/04/12 05:10:50;;;;;;;;;;;;;;;9.60;58.68;95176.47;5053434;28;19921;-66
2023/04/12 05:13:19;;;;;;;;;;;;;;;9.60;58.70;95195.59;5053135;28;19928;-66
2023/04/12 05:15:46;;;;;;;;;;;;;;;9.61;58.53;95191.22;5053487;28;19921;-65
2023/04/12 05:18:13;;;;;;;;;;;;;;;9.62;58.35;95192.91;5053558;28;20337;-66
2023/04/12 05:20:41;;;;;;;;;;;;;;;9.70;57.31;95195.09;5053324;28;19972;-67
2023/04/12 05:23:08;;;;;;;;;;;;;;;9.77;56.72;95196.44;5053312;28;19921;-67
2023/04/12 05:25:35;;;;;;;;;;;;;;;9.85;56.75;95196.81;5053337;28;19924;-66
2023/04/12 05:28:01;;;;;;;;;;;;;;;9.92;58.64;95186.03;5053242;28;19920;-67
2023/04/12 05:30:30;;;;;;;;;;;;;;;9.94;57.67;95187.63;5053207;28;19921;-67
2023/04/12 05:32:57;;;;;;;;;;;;;;;10.04;58.93;95195.78;5053257;28;20359;-67
2023/04/12 05:35:26;;;;;;;;;;;;;;;9.98;58.67;95190.91;5053063;28;19920;-66
2023/04/12 05:37:53;;;;;;;;;;;;;;;10.00;58.63;95196.91;5053336;28;19921;-66
2023/04/12 05:40:19;;;;;;;;;;;;;;;10.04;58.13;95194.94;5053152;28;19928;-66
2023/04/12 05:42:46;;;;;;;;;;;;;;;10.07;58.87;95192.16;5053382;28;19975;-66
2023/04/12 05:45:15;;;;;;;;;;;;;;;10.03;58.92;95193.25;5057228;28;19921;-66
2023/04/12 05:47:43;;;;;;;;;;;;;;;10.11;58.75;95189.28;5057189;28;20338;-66
2023/04/12 05:50:11;;;;;;;;;;;;;;;10.07;59.66;95190.41;5057142;28;20007;-65
2023/04/12 05:52:38;;;;;;;;;;;;;;;10.08;59.67;95184.22;5056768;28;19924;-66
2023/04/12 05:55:05;;;;;;;;;;;;;;;10.12;59.68;95174.47;5057025;28;19956;-66
2023/04/12 05:57:32;;;;;;;;;;;;;;;10.14;60.53;95174.38;5056973;28;19931;-65
2023/04/12 05:59:59;;;;;;;;;;;;;;;10.19;60.01;95165.31;5056954;28;19928;-66
2023/04/12 06:02:26;;;;;;;;;;;;;;;10.30;60.95;95169.09;5056800;28;20416;-65
2023/04/12 06:04:54;;;;;;;;;;;;;;;10.32;59.99;95170.66;5056793;28;19986;-65
2023/04/12 06:07:21;;;;;;;;;;;;;;;10.29;60.55;95163.00;5056767;28;19927;-66
2023/04/12 06:09:48;;;;;;;;;;;;;;;10.36;59.67;95160.88;5056766;28;19928;-66
2023/04/12 06:12:15;;;;;;;;;;;;;;;10.38;60.15;95158.19;5056594;28;19921;-66
2023/04/12 06:14:42;;;;;;;;;;;;;;;10.35;58.62;95157.41;5056833;28;19943;-67
2023/04/12 06:17:09;;;;;;;;;;;;;;;10.31;58.60;95165.53;5056610;28;19975;-66
2023/04/12 06:19:36;;;;;;;;;;;;;;;10.40;60.00;95164.13;5056629;28;19990;-67
2023/04/12 06:22:04;;;;;;;;;;;;;;;10.43;61.05;95162.19;5056589;28;20408;-67
2023/04/12 06:24:31;;;;;;;;;;;;;;;10.46;59.44;95166.44;5056635;28;19921;-65
2023/04/12 06:26:58;;;;;;;;;;;;;;;10.58;59.83;95162.22;5056567;28;19928;-66
2023/04/12 06:29:25;;;;;;;;;;;;;;;10.65;59.35;95166.16;5056663;28;19947;-67
2023/04/12 06:31:52;;;;;;;;;;;;;;;10.61;58.29;95165.53;5056559;28;19920;-67
2023/04/12 06:34:19;;;;;;;;;;;;;;;10.57;58.85;95168.41;5056485;28;20008;-66
2023/04/12 06:36:46;;;;;;;;;;;;;;;10.69;59.42;95165.03;5056312;28;19920;-66
2023/04/12 06:39:15;;;;;;;;;;;;;;;10.72;57.80;95180.53;5056234;28;20366;-66
2023/04/12 06:41:46;;;;;;;;;;;;;;;10.82;58.56;95180.00;5055755;28;19928;-66
2023/04/12 06:44:13;;;;;;;;;;;;;;;10.93;58.46;95189.81;5056266;28;19932;-66
2023/04/12 06:46:40;;;;;;;;;;;;;;;11.04;59.05;95178.66;5056064;28;19966;-66
2023/04/12 06:49:06;;;;;;;;;;;;;;;11.17;57.13;95187.44;5056124;28;19990;-66
2023/04/12 06:51:35;;;;;;;;;;;;;;;11.29;57.69;95179.78;5056067;28;19927;-66
2023/04/12 06:54:02;;;;;;;;;;;;;;;11.32;59.01;95188.25;5055743;28;20015;-66
2023/04/12 06:56:30;;;;;;;;;;;;;;;11.42;57.63;95182.47;5055211;28;19924;-66
2023/04/12 06:58:57;;;;;;;;;;;;;;;11.47;57.17;95186.47;5055876;28;19924;-65
2023/04/12 07:01:24;;;;;;;;;;;;;;;11.50;56.05;95193.31;5055939;28;20286;-66
2023/04/12 07:03:51;;;;;;;;;;;;;;;11.55;57.44;95185.97;5055806;28;19925;-66
2023/04/12 07:06:18;;;;;;;;;;;;;;;11.62;58.28;95183.81;5055720;28;20378;-66
2023/04/12 07:08:45;;;;;;;;;;;;;;;11.69;58.77;95190.34;5055715;28;19925;-65
2023/04/12 07:11:12;;;;;;;;;;;;;;;11.74;56.23;95190.06;5055717;28;20008;-66
2023/04/12 07:13:40;;;;;;;;;;;;;;;11.80;56.45;95189.63;5055381;28;20280;-65
2023/04/12 07:16:07;;;;;;;;;;;;;;;11.83;57.17;95186.81;5055581;28;19921;-65
2023/04/12 07:18:34;;;;;;;;;;;;;;;11.90;57.06;95189.06;5055568;28;19928;-66
2023/04/12 07:21:01;;;;;;;;;;;;;;;11.96;56.45;95189.50;5055559;28;19928;-66
2023/04/12 07:23:29;;;;;;;;;;;;;;;12.03;53.62;95189.94;5055491;28;19959;-66
2023/04/12 07:25:59;;;;;;;;;;;;;;;12.02;54.40;95190.88;5055500;28;19920;-66
2023/04/12 07:28:28;;;;;;;;;;;;;;;12.21;53.24;95197.56;5055403;28;19969;-66
2023/04/12 07:30:56;;;;;;;;;;;;;;;12.30;56.33;95196.94;5055340;28;19960;-65
2023/04/12 07:33:23;;;;;;;;;;;;;;;12.44;54.73;95197.81;5055407;28;20393;-66
2023/04/12 07:35:50;;;;;;;;;;;;;;;12.60;54.81;95193.22;5055227;28;19920;-65
2023/04/12 07:38:17;;;;;;;;;;;;;;;12.70;52.96;95196.03;5055136;28;19974;-65
2023/04/12 07:40:44;;;;;;;;;;;;;;;12.41;54.62;95193.63;5055124;28;19921;-66
2023/04/12 07:43:10;;;;;;;;;;;;;;;12.31;53.32;95201.25;5055075;28;19921;-66
2023/04/12 07:45:37;;;;;;;;;;;;;;;12.06;52.64;95205.47;5054908;28;19921;-66
2023/04/12 07:48:07;;;;;;;;;;;;;;;11.92;52.64;95203.72;5054961;28;19920;-66
2023/04/12 07:50:34;;;;;;;;;;;;;;;11.87;52.30;95208.44;5055006;28;19921;-66
2023/04/12 07:53:15;;;;;;;;;;;;;;;11.90;52.48;95208.25;5054949;28;19924;-66
2023/04/12 07:55:42;;;;;;;;;;;;;;;12.02;53.20;95209.22;5054875;28;19974;-66
2023/04/12 07:58:09;;;;;;;;;;;;;;;12.06;52.63;95196.75;5054939;28;20007;-66
2023/04/12 08:00:36;;;;;;;;;;;;;;;12.13;53.26;95204.16;5054763;28;19921;-66
2023/04/12 08:03:03;;;;;;;;;;;;;;;12.16;54.03;95210.13;5054660;28;19925;-66
2023/04/12 08:05:31;;;;;;;;;;;;;;;12.15;53.87;95209.28;5054605;28;19920;-66
2023/04/12 08:07:58;;;;;;;;;;;;;;;12.19;52.89;95212.56;5054752;28;19921;-66
2023/04/12 08:10:25;;;;;;;;;;;;;;;12.01;52.82;95208.38;5054550;28;19975;-66
2023/04/12 08:12:52;;;;;;;;;;;;;;;11.95;53.20;95208.78;5054276;28;20437;-66
2023/04/12 08:15:19;;;;;;;;;;;;;;;12.01;53.47;95208.38;5054318;28;19974;-66
2023/04/12 08:17:46;;;;;;;;;;;;;;;11.95;52.41;95215.81;5054598;28;19927;-66
2023/04/12 08:20:15;;;;;;;;;;;;;;;11.95;52.39;95221.06;5054505;28;19921;-66
2023/04/12 08:22:43;;;;;;;;;;;;;;;11.90;52.99;95221.34;5054297;28;19921;-66
2023/04/12 08:25:10;;;;;;;;;;;;;;;11.94;53.48;95219.34;5054261;28;19935;-66
2023/04/12 08:27:39;;;;;;;;;;;;;;;11.91;52.96;95230.88;5054312;28;19920;-66
2023/04/12 08:30:07;;;;;;;;;;;;;;;11.96;53.33;95223.56;5054227;28;19967;-66
2023/04/12 08:32:36;;;;;;;;;;;;;;;12.00;52.51;95229.44;5054117;28;20033;-66
2023/04/12 08:35:03;;;;;;;;;;;;;;;11.94;50.26;95235.91;5054193;28;19944;-66
2023/04/12 08:37:31;;;;;;;;;;;;;;;11.98;52.77;95231.34;5054072;28;19964;-66
2023/04/12 08:39:59;;;;;;;;;;;;;;;12.03;51.71;95218.75;5053871;28;19927;-65
2023/04/12 08:42:27;;;;;;;;;;;;;;;12.04;50.27;95222.22;5053838;28;20401;-66
2023/04/12 08:44:53;;;;;;;;;;;;;;;12.17;51.67;95206.56;5053939;28;20015;-66
2023/04/12 08:47:21;;;;;;;;;;;;;;;12.34;52.57;95218.56;5053882;28;19928;-65
2023/04/12 08:49:48;;;;;;;;;;;;;;;12.29;51.92;95211.00;5053904;28;19956;-66
2023/04/12 08:52:15;;;;;;;;;;;;;;;12.28;52.42;95211.94;5053847;28;19963;-65
2023/04/12 08:54:42;;;;;;;;;;;;;;;12.39;51.27;95211.22;5053832;28;19920;-66
2023/04/12 08:57:10;;;;;;;;;;;;;;;12.15;50.08;95211.06;5053751;28;19995;-66
2023/04/12 08:59:38;;;;;;;;;;;;;;;12.13;51.81;95217.25;5053649;28;19944;-66
2023/04/12 09:02:05;;;;;;;;;;;;;;;12.19;52.26;95220.44;5053621;28;20431;-66
2023/04/12 09:04:32;;;;;;;;;;;;;;;12.17;51.72;95227.53;5053568;28;20035;-66
2023/04/12 09:06:58;;;;;;;;;;;;;;;12.28;51.14;95226.84;5053716;28;20004;-65
2023/04/12 09:09:40;;;;;;;;;;;;;;;12.35;51.49;95228.13;5053661;28;20000;-66
2023/04/12 09:12:07;;;;;;;;;;;;;;;12.44;50.47;95231.91;5053670;28;19925;-66
2023/04/12 09:14:36;;;;;;;;;;;;;;;12.41;51.15;95225.09;5053390;28;20039;-66
2023/04/12 09:17:03;;;;;;;;;;;;;;;12.51;50.62;95228.78;5053491;28;19967;-66
2023/04/12 09:19:33;;;;;;;;;;;;;;;12.63;49.97;95226.25;5052997;28;20326;-66
2023/04/12 09:22:00;;;;;;;;;;;;;;;12.70;49.96;95224.91;5053400;28;19921;-66
2023/04/12 09:24:27;;;;;;;;;;;;;;;12.79;50.74;95222.63;5053382;28;19925;-66
2023/04/12 09:27:01;;;;;;;;;;;;;;;13.04;48.02;95226.19;5053527;28;19928;-66
2023/04/12 09:29:28;;;;;;;;;;;;;;;13.29;48.88;95224.47;5053350;28;19920;-66
2023/04/12 09:31:58;;;;;;;;;;;;;;;13.48;48.42;95227.47;5053382;28;19921;-66
2023/04/12 09:34:25;;;;;;;;;;;;;;;13.49;47.97;95225.72;5053272;28;19924;-66
2023/04/12 09:36:52;;;;;;;;;;;;;;;13.47;46.67;95230.22;5053371;28;20401;-66
2023/04/12 09:39:19;;;;;;;;;;;;;;;13.39;47.29;95236.84;5053370;28;20012;-66
2023/04/12 09:41:46;;;;;;;;;;;;;;;13.41;47.23;95236.75;5053138;28;19943;-66
2023/04/12 09:44:27;;;;;;;;;;;;;;;13.29;46.86;95233.19;5053132;28;19927;-66
2023/04/12 09:46:54;;;;;;;;;;;;;;;13.04;45.70;95240.16;5053180;28;19940;-66
2023/04/12 09:49:36;;;;;;;;;;;;;;;12.97;47.70;95241.50;5053174;28;19936;-65
2023/04/12 09:52:03;;;;;;;;;;;;;;;13.04;45.57;95237.53;5053030;28;20398;-65
2023/04/12 09:54:30;;;;;;;;;;;;;;;13.07;48.08;95236.47;5053144;28;19920;-65
2023/04/12 09:56:57;;;;;;;;;;;;;;;13.26;44.96;95229.00;5053067;28;19927;-66
2023/04/12 09:59:27;;;;;;;;;;;;;;;13.46;47.34;95226.75;5053161;28;19974;-66
2023/04/12 10:01:54;;;;;;;;;;;;;;;13.67;43.84;95233.25;5053254;28;19971;-66
2023/04/12 10:04:21;;;;;;;;;;;;;;;13.78;43.57;95222.81;5052932;28;20362;-65
2023/04/12 10:06:50;;;;;;;;;;;;;;;13.79;43.46;95216.63;5053018;28;19927;-66
2023/04/12 10:09:17;;;;;;;;;;;;;;;13.88;42.58;95230.88;5052939;28;19951;-66
2023/04/12 10:11:45;;;;;;;;;;;;;;;13.57;40.40;95226.03;5053097;28;19921;-65
2023/04/12 10:14:12;;;;;;;;;;;;;;;13.52;41.91;95215.84;5052921;28;19921;-66
2023/04/12 10:16:40;;;;;;;;;;;;;;;13.50;41.89;95223.00;5052951;28;19974;-66
2023/04/12 10:19:07;;;;;;;;;;;;;;;13.66;42.71;95221.06;5052856;28;20008;-65
2023/04/12 10:21:35;;;;;;;;;;;;;;;13.63;41.80;95224.75;5053004;28;19920;-66
2023/04/12 10:24:05;;;;;;;;;;;;;;;13.62;42.77;95225.69;5052582;28;20311;-66
2023/04/12 10:26:32;;;;;;;;;;;;;;;13.52;44.58;95225.53;5052881;28;19921;-66
2023/04/12 10:29:18;;;;;;;;;;;;;;;13.67;42.78;95226.22;5053435;28;19921;-66
2023/04/12 10:31:45;;;;;;;;;;;;;;;13.85;41.72;95229.28;5056582;28;19920;-66
2023/04/12 10:34:12;;;;;;;;;;;;;;;13.94;40.52;95219.06;5056416;28;19982;-66
2023/04/12 10:36:51;;;;;;;;;;;;;;;13.96;42.47;95223.25;5056405;28;20019;-66
2023/04/12 10:39:35;;;;;;;;;;;;;;;14.13;43.28;95218.56;5056381;28;19927;-66
2023/04/12 10:42:32;;;;;;;;;;;;;;;14.12;41.05;95222.16;5056147;28;20428;-66
2023/04/12 10:45:20;;;;;;;;;;;;;;;14.09;41.18;95211.88;5056226;28;19921;-65
2023/04/12 10:48:08;;;;;;;;;;;;;;;14.20;40.04;95208.41;5056148;28;19920;-66
2023/04/12 10:50:35;;;;;;;;;;;;;;;14.35;39.98;95207.28;5055936;28;20344;-66
2023/04/12 10:53:26;;;;;;;;;;;;;;;14.48;42.85;95201.94;5056108;28;19960;-66
2023/04/12 10:55:54;;;;;;;;;;;;;;;14.75;39.67;95197.38;5040830;28;20003;-66
2023/04/12 10:58:45;;;;;;;;;;;;;;;14.94;40.26;95199.44;5055930;28;19974;-66
2023/04/12 11:01:12;;;;;;;;;;;;;;;14.78;36.91;95191.91;5040635;28;20018;-66
2023/04/12 11:04:01;;;;;;;;;;;;;;;14.68;38.33;95189.09;5055815;28;20377;-66
2023/04/12 11:06:40;;;;;;;;;;;;;;;14.71;40.76;95191.47;5055794;28;19935;-66
2023/04/12 11:09:07;;;;;;;;;;;;;;;14.88;40.40;95197.28;5055712;28;19920;-66
2023/04/12 11:11:36;;;;;;;;;;;;;;;15.10;39.92;95193.81;5055718;28;20298;-66
2023/04/12 11:14:05;;;;;;;;;;;;;;;15.33;37.52;95209.63;5055516;28;19921;-66
2023/04/12 11:16:32;;;;;;;;;;;;;;;15.44;37.71;95192.97;5055618;28;19943;-66
2023/04/12 11:19:00;;;;;;;;;;;;;;;15.43;39.39;95203.63;5055605;28;20446;-66
2023/04/12 11:21:28;;;;;;;;;;;;;;;15.12;37.99;95210.34;5055482;28;19950;-66
2023/04/12 11:23:57;;;;;;;;;;;;;;;15.08;38.71;95203.63;5055332;28;19928;-66
2023/04/12 11:26:26;;;;;;;;;;;;;;;15.18;36.21;95205.56;5055468;28;19927;-66
2023/04/12 11:28:57;;;;;;;;;;;;;;;15.09;39.58;95189.53;5055345;28;19976;-65
2023/04/12 11:31:24;;;;;;;;;;;;;;;15.17;39.22;95188.91;5055311;28;19929;-66
2023/04/12 11:33:52;;;;;;;;;;;;;;;15.15;38.03;95201.38;5055396;28;19921;-66
2023/04/12 11:36:20;;;;;;;;;;;;;;;15.08;37.30;95200.19;5055248;28;19925;-66
2023/04/12 11:38:49;;;;;;;;;;;;;;;14.98;37.92;95197.41;5055064;28;19999;-66
2023/04/12 11:41:17;;;;;;;;;;;;;;;14.94;37.30;95198.59;5054550;28;19924;-66
2023/04/12 11:43:45;;;;;;;;;;;;;;;14.87;36.81;95190.34;5054953;28;19925;-66
2023/04/12 11:46:14;;;;;;;;;;;;;;;15.02;38.09;95190.97;5055005;28;19921;-66
2023/04/12 11:48:45;;;;;;;;;;;;;;;14.78;38.04;95194.53;5054989;28;20425;-66
2023/04/12 11:51:23;;;;;;;;;;;;;;;14.82;37.24;95184.59;5054969;28;19921;-66
2023/04/12 11:53:53;;;;;;;;;;;;;;;14.89;37.59;95184.00;5054928;28;20333;-66
2023/04/12 11:56:20;;;;;;;;;;;;;;;14.93;36.87;95189.03;5054887;28;19921;-66
2023/04/12 11:58:48;;;;;;;;;;;;;;;14.77;36.39;95185.75;5054759;28;20293;-66
2023/04/12 12:01:17;;;;;;;;;;;;;;;14.70;38.61;95178.44;5054681;28;19931;-66
2023/04/12 12:03:45;;;;;;;;;;;;;;;14.77;37.28;95191.03;5054587;28;19927;-66
2023/04/12 12:06:12;;;;;;;;;;;;;;;14.82;38.26;95174.06;5054710;28;19921;-66
2023/04/12 12:08:39;;;;;;;;;;;;;;;15.03;39.34;95182.91;5054717;28;19921;-66
2023/04/12 12:11:07;;;;;;;;;;;;;;;15.14;34.90;95176.00;5054708;28;19921;-66
2023/04/12 12:13:44;;;;;;;;;;;;;;;14.99;34.81;95184.13;5054450;28;19921;-66
2023/04/12 12:16:11;;;;;;;;;;;;;;;14.94;36.81;95194.19;5054407;28;20362;-66
2023/04/12 12:18:41;;;;;;;;;;;;;;;15.08;35.02;95195.72;5054403;28;19921;-66
2023/04/12 12:21:09;;;;;;;;;;;;;;;15.12;34.53;95193.72;5054438;28;19921;-66
2023/04/12 12:23:36;;;;;;;;;;;;;;;15.21;35.85;95190.38;5054218;28;19921;-66
2023/04/12 12:26:05;;;;;;;;;;;;;;;15.10;34.76;95187.72;5054416;28;19974;-66
2023/04/12 12:28:36;;;;;;;;;;;;;;;14.90;33.92;95195.38;5054227;28;19927;-65
2023/04/12 12:31:07;;;;;;;;;;;;;;;15.02;34.58;95183.88;5054220;28;19920;-66
2023/04/12 12:33:37;;;;;;;;;;;;;;;14.91;32.46;95187.34;5054083;28;20023;-66
2023/04/12 12:36:06;;;;;;;;;;;;;;;14.77;33.25;95193.66;5053992;28;20297;-66
2023/04/12 12:38:38;;;;;;;;;;;;;;;14.66;33.91;95186.56;5053940;28;19928;-66
2023/04/12 12:41:20;;;;;;;;;;;;;;;14.60;32.75;95191.47;5054073;28;19927;-66
2023/04/12 12:43:48;;;;;;;;;;;;;;;14.68;33.32;95185.59;5053745;28;19920;-66
2023/04/12 12:46:17;;;;;;;;;;;;;;;14.83;33.02;95176.56;5053992;28;19979;-66
2023/04/12 12:48:44;;;;;;;;;;;;;;;14.93;33.55;95189.84;5053600;28;20386;-66
2023/04/12 12:51:16;;;;;;;;;;;;;;;15.10;34.39;95193.81;5053797;28;19971;-66
2023/04/12 12:53:43;;;;;;;;;;;;;;;15.19;33.39;95194.06;5052948;28;19966;-67
2023/04/12 12:56:11;;;;;;;;;;;;;;;15.24;33.67;95184.00;5053727;28;19920;-66
2023/04/12 12:58:38;;;;;;;;;;;;;;;15.43;33.27;95187.81;5053862;28;20380;-65